createdAt,value
2018-07-21T00:00:08.642Z,22.58
2018-07-21T00:02:37.636Z,22.36
2018-07-21T00:05:07.851Z,22.59
2018-07-21T00:07:37.378Z,22.48
2018-07-21T00:10:08.259Z,22.31
2018-07-21T00:12:37.258Z,22.37
2018-07-21T00:15:07.331Z,22.37
2018-07-21T00:17:36.318Z,22.26
2018-07-21T00:20:09.143Z,22.19
2018-07-21T00:22:38.167Z,22.18
2018-07-21T00:25:07.270Z,22.15
2018-07-21T00:27:36.372Z,22.15
2018-07-21T00:30:07.327Z,22.18
2018-07-21T00:32:36.279Z,22.07
2018-07-21T00:35:08.302Z,21.93
2018-07-21T00:37:37.279Z,21.92
2018-07-21T00:40:08.072Z,21.94
2018-07-21T00:42:37.366Z,21.72
2018-07-21T00:45:07.611Z,21.58
2018-07-21T00:47:36.570Z,21.54
2018-07-21T00:50:08.650Z,21.45
2018-07-21T00:52:37.794Z,21.55
2018-07-21T00:55:08.079Z,21.37
2018-07-21T00:57:37.023Z,21.37
2018-07-21T01:00:07.865Z,21.49
2018-07-21T01:02:36.855Z,21.40
2018-07-21T01:05:09.247Z,21.19
2018-07-21T01:07:38.375Z,21.13
2018-07-21T01:10:08.426Z,21.01
2018-07-21T01:12:38.100Z,21.03
2018-07-21T01:15:08.948Z,21.09
2018-07-21T01:17:38.643Z,21.23
2018-07-21T01:20:08.338Z,21.31
2018-07-21T01:22:37.640Z,21.33
2018-07-21T01:25:08.186Z,21.09
2018-07-21T01:27:37.243Z,21.16
2018-07-21T01:30:08.318Z,20.93
2018-07-21T01:32:37.605Z,21.06
2018-07-21T01:35:07.920Z,20.91
2018-07-21T01:37:37.402Z,21.12
2018-07-21T01:40:07.818Z,21.16
2018-07-21T01:42:36.923Z,21.11
2018-07-21T01:45:07.498Z,21.05
2018-07-21T01:47:36.559Z,21.09
2018-07-21T01:50:07.286Z,21.20
2018-07-21T01:52:36.586Z,20.94
2018-07-21T01:55:08.960Z,21.03
2018-07-21T01:57:37.933Z,21.03
2018-07-21T02:00:07.701Z,21.12
2018-07-21T02:02:36.768Z,20.91
2018-07-21T02:05:07.575Z,20.86
2018-07-21T02:07:36.806Z,20.83
2018-07-21T02:10:07.559Z,20.75
2018-07-21T02:12:37.153Z,20.80
2018-07-21T02:15:07.494Z,20.75
2018-07-21T02:17:36.571Z,20.66
2018-07-21T02:20:08.063Z,20.45
2018-07-21T02:22:37.103Z,20.44
2018-07-21T02:25:08.415Z,20.26
2018-07-21T02:27:37.638Z,20.27
2018-07-21T02:30:07.367Z,20.25
2018-07-21T02:32:36.451Z,20.18
2018-07-21T02:35:07.287Z,20.23
2018-07-21T02:37:36.374Z,20.29
2018-07-21T02:40:09.187Z,20.27
2018-07-21T02:42:38.461Z,20.11
2018-07-21T02:45:07.519Z,20.09
2018-07-21T02:47:37.892Z,20.10
2018-07-21T02:50:07.466Z,20.17
2018-07-21T02:52:36.698Z,20.32
2018-07-21T02:55:07.621Z,20.34
2018-07-21T02:57:36.963Z,20.29
2018-07-21T03:00:09.941Z,20.26
2018-07-21T03:02:39.309Z,20.46
2018-07-21T03:05:08.557Z,20.24
2018-07-21T03:07:37.681Z,20.14
2018-07-21T03:10:08.097Z,20.30
2018-07-21T03:12:37.731Z,20.39
2018-07-21T03:15:07.941Z,20.49
2018-07-21T03:17:37.578Z,20.35
2018-07-21T03:20:07.769Z,20.36
2018-07-21T03:22:36.970Z,20.47
2018-07-21T03:25:07.700Z,20.28
2018-07-21T03:27:36.964Z,20.24
2018-07-21T03:30:07.606Z,20.31
2018-07-21T03:32:37.249Z,20.28
2018-07-21T03:35:07.695Z,20.23
2018-07-21T03:37:37.586Z,20.06
2018-07-21T03:40:07.850Z,19.84
2018-07-21T03:42:37.132Z,19.74
2018-07-21T03:45:07.578Z,19.59
2018-07-21T03:47:36.834Z,19.52
2018-07-21T03:50:07.611Z,19.58
2018-07-21T03:52:37.135Z,19.68
2018-07-21T03:55:07.804Z,19.79
2018-07-21T03:57:37.734Z,19.84
2018-07-21T04:00:08.554Z,19.68
2018-07-21T04:02:37.774Z,19.59
2018-07-21T04:05:08.627Z,19.54
2018-07-21T04:07:38.318Z,19.52
2018-07-21T04:10:07.877Z,19.50
2018-07-21T04:12:37.116Z,19.55
2018-07-21T04:15:08.146Z,19.68
2018-07-21T04:17:37.667Z,19.83
2018-07-21T04:20:08.917Z,19.71
2018-07-21T04:22:38.781Z,19.52
2018-07-21T04:25:08.892Z,19.59
2018-07-21T04:27:38.370Z,19.47
2018-07-21T04:30:07.883Z,19.67
2018-07-21T04:32:37.563Z,19.83
2018-07-21T04:35:08.525Z,20.02
2018-07-21T04:37:37.799Z,20.00
2018-07-21T04:40:09.380Z,20.00
2018-07-21T04:42:38.660Z,19.92
2018-07-21T04:45:07.870Z,19.92
2018-07-21T04:47:37.164Z,19.89
2018-07-21T04:50:09.440Z,19.91
2018-07-21T04:52:38.414Z,19.78
2018-07-21T04:55:07.545Z,19.94
2018-07-21T04:57:36.815Z,19.88
2018-07-21T05:00:08.239Z,19.71
2018-07-21T05:02:37.453Z,19.39
2018-07-21T05:05:07.838Z,19.39
2018-07-21T05:07:37.072Z,19.62
2018-07-21T05:10:09.611Z,19.55
2018-07-21T05:12:38.908Z,19.63
2018-07-21T05:15:08.386Z,19.41
2018-07-21T05:17:37.453Z,19.45
2018-07-21T05:20:07.852Z,19.75
2018-07-21T05:22:38.224Z,19.75
2018-07-21T05:25:07.702Z,19.82
2018-07-21T05:27:36.755Z,19.82
2018-07-21T05:30:11.177Z,19.56
2018-07-21T05:32:40.543Z,19.73
2018-07-21T05:35:09.706Z,19.99
2018-07-21T05:37:39.853Z,19.99
2018-07-21T05:40:09.031Z,19.88
2018-07-21T05:42:38.136Z,19.68
2018-07-21T05:45:07.982Z,19.76
2018-07-21T05:47:36.895Z,19.78
2018-07-21T05:50:07.578Z,19.84
2018-07-21T05:52:36.712Z,19.94
2018-07-21T05:55:07.681Z,20.14
2018-07-21T05:57:36.806Z,20.12
2018-07-21T06:00:11.147Z,20.14
2018-07-21T06:02:40.422Z,20.30
2018-07-21T06:05:09.638Z,20.23
2018-07-21T06:07:38.958Z,20.21
2018-07-21T06:10:08.206Z,20.36
2018-07-21T06:12:37.485Z,20.27
2018-07-21T06:15:07.887Z,20.43
2018-07-21T06:17:37.211Z,20.47
2018-07-21T06:20:08.286Z,20.60
2018-07-21T06:22:37.703Z,20.58
2018-07-21T06:25:07.666Z,20.80
2018-07-21T06:27:36.711Z,20.70
2018-07-21T06:30:07.878Z,20.74
2018-07-21T06:32:37.146Z,20.56
2018-07-21T06:35:09.302Z,20.66
2018-07-21T06:37:38.522Z,20.78
2018-07-21T06:40:07.804Z,20.89
2018-07-21T06:42:36.905Z,20.75
2018-07-21T06:45:09.496Z,20.76
2018-07-21T06:47:38.809Z,20.99
2018-07-21T06:50:08.786Z,21.05
2018-07-21T06:52:37.875Z,21.15
2018-07-21T06:55:11.944Z,21.20
2018-07-21T06:57:43.315Z,21.26
2018-07-21T07:00:12.551Z,21.39
2018-07-21T07:02:41.854Z,21.19
2018-07-21T07:05:11.026Z,21.05
2018-07-21T07:07:39.993Z,21.37
2018-07-21T07:10:09.370Z,21.42
2018-07-21T07:12:38.335Z,21.70
2018-07-21T07:15:08.582Z,21.91
2018-07-21T07:17:37.858Z,22.03
2018-07-21T07:20:08.956Z,22.27
2018-07-21T07:22:38.869Z,22.45
2018-07-21T07:25:07.955Z,22.36
2018-07-21T07:27:37.231Z,21.57
2018-07-21T07:30:09.369Z,21.66
2018-07-21T07:32:38.314Z,21.80
2018-07-21T07:35:07.929Z,22.18
2018-07-21T07:37:36.960Z,22.35
2018-07-21T07:40:07.873Z,22.55
2018-07-21T07:42:37.631Z,22.44
2018-07-21T07:45:07.633Z,23.10
2018-07-21T07:47:36.723Z,22.99
2018-07-21T07:50:08.058Z,23.46
2018-07-21T07:52:37.001Z,23.81
2018-07-21T07:55:08.666Z,23.64
2018-07-21T07:57:37.903Z,23.71
2018-07-21T08:00:06.958Z,23.80
2018-07-21T08:02:36.228Z,23.51
2018-07-21T08:05:07.089Z,23.26
2018-07-21T08:07:36.370Z,23.27
2018-07-21T08:10:07.544Z,23.47
2018-07-21T08:12:36.777Z,22.96
2018-07-21T08:15:06.700Z,23.05
2018-07-21T08:17:36.446Z,22.62
2018-07-21T08:20:07.505Z,22.74
2018-07-21T08:22:36.674Z,23.17
2018-07-21T08:25:06.770Z,23.03
2018-07-21T08:27:35.757Z,22.99
2018-07-21T08:30:09.589Z,22.75
2018-07-21T08:32:39.314Z,23.07
2018-07-21T08:35:08.568Z,23.59
2018-07-21T08:37:38.462Z,23.68
2018-07-21T08:40:09.014Z,24.28
2018-07-21T08:42:38.518Z,24.77
2018-07-21T08:45:08.570Z,23.79
2018-07-21T08:47:37.841Z,24.41
2018-07-21T08:50:07.655Z,25.69
2018-07-21T08:52:36.746Z,26.92
2018-07-21T08:55:07.683Z,26.20
2018-07-21T08:57:37.322Z,25.95
2018-07-21T09:00:07.349Z,25.53
2018-07-21T09:02:36.616Z,25.45
2018-07-21T09:05:07.596Z,26.62
2018-07-21T09:07:37.442Z,25.83
2018-07-21T09:10:07.146Z,25.83
2018-07-21T09:12:36.260Z,25.75
2018-07-21T09:15:07.845Z,26.43
2018-07-21T09:17:37.703Z,27.09
2018-07-21T09:20:07.805Z,27.42
2018-07-21T09:22:36.811Z,25.66
2018-07-21T09:25:07.566Z,25.86
2018-07-21T09:27:36.788Z,25.83
2018-07-21T09:30:08.058Z,25.65
2018-07-21T09:32:37.331Z,25.35
2018-07-21T09:35:07.681Z,24.97
2018-07-21T09:37:36.881Z,25.08
2018-07-21T09:40:06.990Z,25.17
2018-07-21T09:42:36.454Z,24.98
2018-07-21T09:45:07.865Z,24.80
2018-07-21T09:47:37.076Z,24.59
2018-07-21T09:50:08.715Z,25.63
2018-07-21T09:52:38.390Z,25.68
2018-07-21T09:55:08.657Z,25.88
2018-07-21T09:57:38.611Z,27.78
2018-07-21T10:00:10.440Z,28.48
2018-07-21T10:02:39.544Z,28.56
2018-07-21T10:05:08.997Z,29.43
2018-07-21T10:07:38.047Z,30.02
2018-07-21T10:10:07.490Z,28.10
2018-07-21T10:12:36.758Z,28.21
2018-07-21T10:15:07.598Z,29.76
2018-07-21T10:17:36.920Z,28.99
2018-07-21T10:20:07.498Z,27.59
2018-07-21T10:22:36.507Z,27.35
2018-07-21T10:25:12.590Z,28.31
2018-07-21T10:27:47.267Z,28.30
2018-07-21T10:30:16.256Z,30.90
2018-07-21T10:32:45.933Z,33.30
2018-07-21T10:35:15.215Z,33.68
2018-07-21T10:37:45.151Z,33.66
2018-07-21T10:40:14.508Z,33.79
2018-07-21T10:42:43.467Z,34.44
2018-07-21T10:45:12.866Z,33.27
2018-07-21T10:47:42.085Z,35.12
2018-07-21T10:50:11.227Z,34.64
2018-07-21T10:52:40.983Z,34.73
2018-07-21T10:55:10.262Z,35.04
2018-07-21T10:57:39.702Z,34.38
2018-07-21T11:00:08.771Z,34.79
2018-07-21T11:02:38.169Z,32.74
2018-07-21T11:05:08.056Z,33.95
2018-07-21T11:07:37.384Z,33.50
2018-07-21T11:10:08.741Z,33.05
2018-07-21T11:12:37.990Z,32.31
2018-07-21T11:15:09.095Z,28.79
2018-07-21T11:17:38.583Z,29.30
2018-07-21T11:20:08.003Z,29.93
2018-07-21T11:22:37.550Z,29.67
2018-07-21T11:25:09.134Z,29.07
2018-07-21T11:27:38.291Z,29.64
2018-07-21T11:30:08.123Z,28.26
2018-07-21T11:32:37.055Z,28.98
2018-07-21T11:35:08.005Z,29.62
2018-07-21T11:37:37.220Z,29.77
2018-07-21T11:40:08.396Z,29.81
2018-07-21T11:42:38.494Z,29.95
2018-07-21T11:45:08.098Z,29.67
2018-07-21T11:47:37.172Z,29.67
2018-07-21T11:50:07.548Z,29.71
2018-07-21T11:52:37.345Z,29.37
2018-07-21T11:55:07.290Z,28.09
2018-07-21T11:57:37.029Z,28.78
2018-07-21T12:00:08.407Z,28.49
2018-07-21T12:02:37.490Z,29.16
2018-07-21T12:05:08.375Z,29.40
2018-07-21T12:07:37.826Z,29.54
2018-07-21T12:10:06.937Z,29.13
2018-07-21T12:12:36.079Z,29.30
2018-07-21T12:15:07.638Z,28.38
2018-07-21T12:17:37.003Z,28.24
2018-07-21T12:20:07.638Z,29.19
2018-07-21T12:22:36.943Z,29.44
2018-07-21T12:25:07.622Z,29.27
2018-07-21T12:27:37.169Z,29.17
2018-07-21T12:30:07.655Z,29.32
2018-07-21T12:32:36.618Z,30.24
2018-07-21T12:35:08.131Z,30.01
2018-07-21T12:37:37.226Z,30.29
2018-07-21T12:40:08.080Z,29.76
2018-07-21T12:42:37.296Z,29.88
2018-07-21T12:45:07.609Z,30.18
2018-07-21T12:47:36.899Z,30.06
2018-07-21T12:50:08.578Z,30.47
2018-07-21T12:52:38.449Z,30.46
2018-07-21T12:55:07.782Z,30.17
2018-07-21T12:57:38.081Z,28.95
2018-07-21T13:00:07.575Z,29.02
2018-07-21T13:02:36.875Z,29.95
2018-07-21T13:05:08.213Z,29.92
2018-07-21T13:07:37.331Z,28.72
2018-07-21T13:10:07.416Z,28.72
2018-07-21T13:12:36.791Z,29.39
2018-07-21T13:15:07.825Z,29.50
2018-07-21T13:17:39.044Z,29.87
2018-07-21T13:20:08.556Z,29.95
2018-07-21T13:22:37.527Z,30.36
2018-07-21T13:25:07.643Z,29.54
2018-07-21T13:27:36.930Z,30.07
2018-07-21T13:30:08.710Z,29.66
2018-07-21T13:32:37.769Z,29.17
2018-07-21T13:35:08.797Z,29.02
2018-07-21T13:37:37.950Z,29.28
2018-07-21T13:40:08.079Z,28.80
2018-07-21T13:42:37.419Z,29.64
2018-07-21T13:45:07.670Z,29.80
2018-07-21T13:47:36.868Z,29.59
2018-07-21T13:50:09.187Z,29.03
2018-07-21T13:52:38.784Z,29.22
2018-07-21T13:55:07.821Z,29.47
2018-07-21T13:57:36.799Z,29.50
2018-07-21T14:00:07.623Z,29.30
2018-07-21T14:02:37.001Z,29.50
2018-07-21T14:05:07.898Z,29.69
2018-07-21T14:07:37.108Z,29.99
2018-07-21T14:10:08.125Z,30.01
2018-07-21T14:12:37.855Z,29.80
2018-07-21T14:15:07.168Z,29.68
2018-07-21T14:17:36.366Z,28.88
2018-07-21T14:20:08.711Z,28.57
2018-07-21T14:22:38.007Z,28.44
2018-07-21T14:25:07.019Z,28.51
2018-07-21T14:27:36.255Z,28.84
2018-07-21T14:30:09.510Z,29.31
2018-07-21T14:32:38.459Z,29.63
2018-07-21T14:35:07.715Z,29.55
2018-07-21T14:37:36.891Z,29.57
2018-07-21T14:40:07.502Z,29.51
2018-07-21T14:42:36.731Z,28.31
2018-07-21T14:45:08.923Z,28.12
2018-07-21T14:47:37.968Z,28.38
2018-07-21T14:50:08.427Z,28.61
2018-07-21T14:52:37.627Z,28.81
2018-07-21T14:55:07.817Z,28.80
2018-07-21T14:57:36.710Z,28.77
2018-07-21T15:00:07.567Z,28.77
2018-07-21T15:02:37.879Z,28.77
2018-07-21T15:05:07.464Z,28.67
2018-07-21T15:07:36.588Z,28.39
2018-07-21T15:10:07.911Z,28.19
2018-07-21T15:12:36.940Z,28.03
2018-07-21T15:15:08.048Z,27.81
2018-07-21T15:17:37.019Z,27.60
2018-07-21T15:20:08.040Z,27.18
2018-07-21T15:22:37.083Z,26.79
2018-07-21T15:25:07.537Z,26.41
2018-07-21T15:27:36.633Z,25.81
2018-07-21T15:30:07.574Z,25.02
2018-07-21T15:32:36.567Z,23.68
2018-07-21T15:35:07.505Z,23.75
2018-07-21T15:37:36.755Z,23.11
2018-07-21T15:40:09.232Z,22.83
2018-07-21T15:42:38.455Z,22.55
2018-07-21T15:45:07.947Z,22.22
2018-07-21T15:47:37.039Z,22.10
2018-07-21T15:50:07.163Z,21.81
2018-07-21T15:52:36.286Z,21.47
2018-07-21T15:55:07.186Z,21.46
2018-07-21T15:57:36.322Z,21.56
2018-07-21T16:00:07.966Z,21.43
2018-07-21T16:02:37.063Z,21.44
2018-07-21T16:05:08.034Z,21.38
2018-07-21T16:07:37.387Z,21.26
2018-07-21T16:10:08.154Z,21.23
2018-07-21T16:12:37.926Z,21.04
2018-07-21T16:15:08.304Z,21.17
2018-07-21T16:17:37.523Z,20.95
2018-07-21T16:20:08.246Z,20.89
2018-07-21T16:22:37.481Z,20.84
2018-07-21T16:25:08.039Z,20.78
2018-07-21T16:27:37.113Z,20.88
2018-07-21T16:30:08.755Z,21.02
2018-07-21T16:32:37.730Z,20.95
2018-07-21T16:35:07.581Z,21.02
2018-07-21T16:37:36.885Z,21.16
2018-07-21T16:40:08.283Z,21.20
2018-07-21T16:42:37.542Z,21.22
2018-07-21T16:45:08.468Z,21.23
2018-07-21T16:47:38.060Z,21.66
2018-07-21T16:50:07.425Z,21.39
2018-07-21T16:52:37.078Z,21.56
2018-07-21T16:55:07.606Z,21.39
2018-07-21T16:57:37.216Z,21.72
2018-07-21T17:00:08.581Z,21.80
2018-07-21T17:02:38.138Z,21.87
2018-07-21T17:05:07.173Z,22.07
2018-07-21T17:07:36.124Z,21.97
2018-07-21T17:10:08.994Z,22.10
2018-07-21T17:12:37.943Z,22.15
2018-07-21T17:15:08.373Z,22.08
2018-07-21T17:17:38.363Z,22.01
2018-07-21T17:20:07.484Z,22.01
2018-07-21T17:22:36.811Z,21.90
2018-07-21T17:25:07.436Z,21.99
2018-07-21T17:27:36.686Z,21.85
2018-07-21T17:30:09.159Z,21.94
2018-07-21T17:32:38.971Z,21.98
2018-07-21T17:35:07.994Z,22.01
2018-07-21T17:37:37.148Z,21.88
2018-07-21T17:40:08.027Z,21.88
2018-07-21T17:42:37.290Z,21.83
2018-07-21T17:45:07.872Z,21.89
2018-07-21T17:47:36.845Z,21.84
2018-07-21T17:50:08.266Z,21.71
2018-07-21T17:52:37.573Z,21.67
2018-07-21T17:55:07.306Z,21.58
2018-07-21T17:57:36.586Z,21.65
2018-07-21T18:00:09.547Z,21.70
2018-07-21T18:02:38.825Z,21.63
2018-07-21T18:05:08.238Z,21.71
2018-07-21T18:07:37.286Z,21.75
2018-07-21T18:10:07.591Z,21.74
2018-07-21T18:12:36.895Z,21.64
2018-07-21T18:15:07.465Z,21.68
2018-07-21T18:17:37.015Z,21.74
2018-07-21T18:20:08.942Z,21.73
2018-07-21T18:22:38.809Z,21.64
2018-07-21T18:25:09.405Z,21.41
2018-07-21T18:27:38.695Z,21.44
2018-07-21T18:30:07.953Z,21.61
2018-07-21T18:32:37.219Z,21.47
2018-07-21T18:35:08.294Z,21.49
2018-07-21T18:37:37.582Z,21.40
2018-07-21T18:40:07.323Z,21.25
2018-07-21T18:42:40.850Z,21.26
2018-07-21T18:45:10.715Z,21.54
2018-07-21T18:47:39.772Z,21.56
2018-07-21T18:50:09.016Z,21.44
2018-07-21T18:52:38.763Z,21.72
2018-07-21T18:55:07.926Z,21.75
2018-07-21T18:57:37.234Z,21.81
2018-07-21T19:00:07.981Z,21.70
2018-07-21T19:02:37.429Z,21.53
2018-07-21T19:05:07.743Z,21.38
2018-07-21T19:07:37.278Z,21.54
2018-07-21T19:10:07.251Z,21.40
2018-07-21T19:12:41.595Z,21.44
2018-07-21T19:15:11.559Z,21.45
2018-07-21T19:17:41.183Z,21.48
2018-07-21T19:20:15.694Z,21.47
2018-07-21T19:22:44.930Z,21.39
2018-07-21T19:25:19.794Z,21.37
2018-07-21T19:27:48.779Z,21.35
2018-07-21T19:30:17.935Z,21.34
2018-07-21T19:32:53.341Z,21.27
2018-07-21T19:35:22.486Z,21.12
2018-07-21T19:37:51.800Z,21.33
2018-07-21T19:40:21.651Z,21.26
2018-07-21T19:42:50.675Z,21.35
2018-07-21T19:45:19.890Z,21.24
2018-07-21T19:47:49.339Z,21.23
2018-07-21T19:50:18.379Z,21.30
2018-07-21T19:52:48.250Z,21.27
2018-07-21T19:55:17.423Z,21.29
2018-07-21T19:57:46.427Z,21.26
2018-07-21T20:00:15.794Z,21.24
2018-07-21T20:02:45.178Z,21.09
2018-07-21T20:05:14.906Z,21.04
2018-07-21T20:07:44.015Z,21.02
2018-07-21T20:10:13.174Z,21.09
2018-07-21T20:12:42.630Z,20.82
2018-07-21T20:15:11.687Z,20.74
2018-07-21T20:17:41.261Z,20.80
2018-07-21T20:20:10.490Z,20.92
2018-07-21T20:22:39.457Z,20.82
2018-07-21T20:25:08.689Z,20.83
2018-07-21T20:27:37.826Z,20.80
2018-07-21T20:30:07.856Z,20.83
2018-07-21T20:32:36.836Z,20.74
2018-07-21T20:35:10.432Z,20.51
2018-07-21T20:37:39.703Z,20.63
2018-07-21T20:40:08.887Z,20.72
2018-07-21T20:42:38.012Z,20.72
2018-07-21T20:45:08.186Z,20.61
2018-07-21T20:47:37.714Z,20.59
2018-07-21T20:50:08.435Z,20.52
2018-07-21T20:52:37.411Z,20.44
2018-07-21T20:55:12.399Z,20.32
2018-07-21T20:57:41.888Z,20.36
2018-07-21T21:00:11.206Z,20.51
2018-07-21T21:02:40.380Z,20.59
2018-07-21T21:05:09.689Z,20.52
2018-07-21T21:07:38.698Z,20.47
2018-07-21T21:10:08.130Z,20.40
2018-07-21T21:12:38.187Z,20.28
2018-07-21T21:15:09.101Z,20.21
2018-07-21T21:17:38.046Z,20.33
2018-07-21T21:20:08.222Z,20.52
2018-07-21T21:22:37.394Z,20.38
2018-07-21T21:25:07.802Z,20.49
2018-07-21T21:27:37.034Z,20.37
2018-07-21T21:30:09.319Z,20.15
2018-07-21T21:32:38.410Z,20.02
2018-07-21T21:35:07.775Z,19.97
2018-07-21T21:37:36.793Z,19.98
2018-07-21T21:40:07.420Z,19.99
2018-07-21T21:42:36.781Z,20.00
2018-07-21T21:45:07.529Z,20.03
2018-07-21T21:47:36.483Z,20.09
2018-07-21T21:50:07.539Z,20.00
2018-07-21T21:52:36.849Z,20.02
2018-07-21T21:55:09.281Z,19.99
2018-07-21T21:57:38.524Z,20.00
2018-07-21T22:00:11.200Z,20.00
2018-07-21T22:02:41.003Z,20.00
2018-07-21T22:05:11.011Z,20.02
2018-07-21T22:07:40.329Z,20.05
2018-07-21T22:10:09.534Z,20.14
2018-07-21T22:12:39.412Z,20.14
2018-07-21T22:15:15.591Z,20.37
2018-07-21T22:17:45.473Z,20.57
2018-07-21T22:20:15.082Z,20.46
2018-07-21T22:22:44.978Z,20.59
2018-07-21T22:25:14.106Z,20.45
2018-07-21T22:27:43.231Z,20.44
2018-07-21T22:30:17.556Z,20.34
2018-07-21T22:32:46.856Z,20.34
2018-07-21T22:35:16.131Z,20.35
2018-07-21T22:37:45.168Z,20.24
2018-07-21T22:40:14.110Z,20.23
2018-07-21T22:42:43.387Z,20.31
2018-07-21T22:45:17.194Z,20.36
2018-07-21T22:47:47.077Z,20.31
2018-07-21T22:50:16.356Z,20.28
2018-07-21T22:52:45.320Z,20.24
2018-07-21T22:55:14.722Z,20.19
2018-07-21T22:57:43.972Z,20.25
2018-07-21T23:00:13.164Z,20.22
2018-07-21T23:02:43.031Z,20.12
2018-07-21T23:05:12.958Z,20.14
2018-07-21T23:07:42.025Z,20.21
2018-07-21T23:10:11.622Z,20.21
2018-07-21T23:12:40.752Z,20.24
2018-07-21T23:15:10.587Z,20.23
2018-07-21T23:17:39.820Z,20.24
2018-07-21T23:20:09.906Z,20.12
2018-07-21T23:22:39.183Z,20.10
2018-07-21T23:25:08.204Z,20.04
2018-07-21T23:27:37.476Z,20.05
2018-07-21T23:30:12.709Z,20.10
2018-07-21T23:32:42.326Z,20.19
2018-07-21T23:35:11.946Z,20.21
2018-07-21T23:37:41.644Z,20.18
2018-07-21T23:40:11.841Z,20.22
2018-07-21T23:42:41.690Z,20.29
2018-07-21T23:45:10.963Z,20.38
2018-07-21T23:47:40.443Z,20.47
2018-07-21T23:50:09.688Z,20.47
2018-07-21T23:52:38.785Z,20.45
2018-07-21T23:55:08.882Z,20.42
2018-07-21T23:57:38.923Z,20.41
